createdAt,value
2022-10-03T00:02:35.511Z,3.67
2022-10-03T00:05:36.238Z,3.72
2022-10-03T00:08:31.756Z,3.00
2022-10-03T00:11:12.558Z,3.58
2022-10-03T00:14:17.018Z,2.60
2022-10-03T00:17:20.345Z,2.88
2022-10-03T00:20:09.524Z,2.08
2022-10-03T00:23:06.477Z,2.47
2022-10-03T00:26:32.517Z,3.30
2022-10-03T00:29:31.084Z,2.20
2022-10-03T00:32:25.795Z,2.35
2022-10-03T00:35:15.841Z,2.30
2022-10-03T00:38:07.703Z,2.47
2022-10-03T00:46:23.588Z,3.67
2022-10-03T00:49:18.893Z,2.70
2022-10-03T00:52:21.997Z,2.40
2022-10-03T00:55:20.312Z,2.00
2022-10-03T00:58:38.254Z,2.30
2022-10-03T01:01:53.229Z,2.42
2022-10-03T01:05:02.515Z,2.10
2022-10-03T01:08:04.441Z,2.40
2022-10-03T01:11:09.940Z,2.75
2022-10-03T01:14:03.834Z,2.40
2022-10-03T01:20:53.674Z,2.33
2022-10-03T01:24:01.458Z,1.90
2022-10-03T01:27:12.878Z,2.60
2022-10-03T01:30:19.324Z,2.20
2022-10-03T01:33:27.419Z,2.30
2022-10-03T01:36:19.589Z,2.40
2022-10-03T01:39:28.685Z,2.63
2022-10-03T01:42:18.267Z,2.13
2022-10-03T01:45:13.382Z,2.47
2022-10-03T01:48:00.584Z,2.83
2022-10-03T01:51:03.931Z,2.60
2022-10-03T01:53:53.357Z,2.10
2022-10-03T01:57:16.117Z,2.42
2022-10-03T01:59:49.176Z,2.03
2022-10-03T02:02:40.644Z,2.38
2022-10-03T02:05:48.314Z,2.40
2022-10-03T02:08:36.052Z,2.65
2022-10-03T02:11:10.921Z,2.10
2022-10-03T02:13:51.079Z,2.20
2022-10-03T02:16:29.669Z,2.30
2022-10-03T02:19:29.499Z,1.65
2022-10-03T02:22:01.057Z,2.28
2022-10-03T02:24:28.445Z,2.15
2022-10-03T02:27:51.814Z,2.47
2022-10-03T02:30:48.032Z,3.03
2022-10-03T02:33:37.472Z,2.53
2022-10-03T02:36:17.162Z,2.67
2022-10-03T02:38:54.639Z,2.28
2022-10-03T02:41:52.627Z,2.35
2022-10-03T02:44:34.931Z,2.13
2022-10-03T02:47:11.179Z,2.55
2022-10-03T02:49:56.606Z,2.83
2022-10-03T02:53:11.057Z,2.22
2022-10-03T02:56:14.168Z,3.47
2022-10-03T02:59:18.770Z,3.40
2022-10-03T03:01:59.993Z,3.17
2022-10-03T03:05:01.837Z,5.18
2022-10-03T03:07:52.302Z,3.72
2022-10-03T03:10:25.498Z,3.35
2022-10-03T03:13:26.625Z,2.90
2022-10-03T03:16:20.790Z,2.60
2022-10-03T03:18:47.881Z,3.15
2022-10-03T03:21:34.773Z,2.90
2022-10-03T03:24:38.423Z,2.72
2022-10-03T03:27:30.876Z,2.47
2022-10-03T03:30:16.018Z,3.33
2022-10-03T03:32:57.100Z,3.45
2022-10-03T03:35:40.382Z,2.92
2022-10-03T03:38:32.373Z,2.80
2022-10-03T03:41:13.345Z,2.42
2022-10-03T03:47:30.413Z,2.65
2022-10-03T03:50:31.056Z,2.45
2022-10-03T03:53:10.503Z,2.53
2022-10-03T03:56:24.000Z,2.70
2022-10-03T03:59:09.720Z,2.40
2022-10-03T04:01:56.601Z,2.55
2022-10-03T04:05:02.719Z,2.13
2022-10-03T04:08:05.040Z,2.30
2022-10-03T04:11:16.168Z,2.75
2022-10-03T04:14:08.983Z,2.50
2022-10-03T04:17:08.270Z,2.45
2022-10-03T04:19:55.953Z,3.33
2022-10-03T04:22:34.402Z,2.83
2022-10-03T04:25:20.954Z,2.42
2022-10-03T04:28:27.766Z,2.47
2022-10-03T04:31:32.506Z,2.40
2022-10-03T04:34:34.228Z,2.40
2022-10-03T04:37:26.135Z,2.80
2022-10-03T04:47:01.536Z,2.33
2022-10-03T04:49:44.765Z,2.58
2022-10-03T04:53:24.168Z,2.60
2022-10-03T04:56:08.625Z,2.88
2022-10-03T04:59:16.562Z,2.53
2022-10-03T05:02:03.504Z,2.97
2022-10-03T05:04:43.470Z,3.45
2022-10-03T05:07:27.033Z,3.33
2022-10-03T05:10:13.371Z,3.28
2022-10-03T05:13:16.576Z,3.85
2022-10-03T05:16:20.001Z,3.70
2022-10-03T05:21:47.795Z,3.70
2022-10-03T05:24:59.117Z,4.07
2022-10-03T05:27:52.003Z,3.30
2022-10-03T05:30:54.627Z,4.43
2022-10-03T05:33:49.408Z,4.45
2022-10-03T05:36:52.715Z,3.47
2022-10-03T05:39:29.015Z,3.50
2022-10-03T05:42:26.629Z,3.13
2022-10-03T05:45:16.828Z,3.25
2022-10-03T05:48:23.748Z,3.33
2022-10-03T05:51:37.762Z,3.28
2022-10-03T05:54:46.490Z,4.22
2022-10-03T05:57:53.579Z,3.90
2022-10-03T06:01:02.551Z,4.20
2022-10-03T06:04:07.372Z,3.78
2022-10-03T06:07:11.085Z,3.97
2022-10-03T06:09:52.829Z,4.38
2022-10-03T06:12:49.053Z,4.10
2022-10-03T06:15:21.961Z,4.13
2022-10-03T06:18:01.235Z,4.03
2022-10-03T06:21:13.124Z,4.82
2022-10-03T06:24:21.391Z,4.63
2022-10-03T06:27:00.167Z,4.65
2022-10-03T06:30:04.034Z,4.53
2022-10-03T06:33:28.519Z,4.80
2022-10-03T06:36:26.718Z,4.22
2022-10-03T06:39:25.890Z,4.65
2022-10-03T06:42:12.713Z,4.85
2022-10-03T06:45:10.810Z,5.13
2022-10-03T06:47:51.706Z,5.35
2022-10-03T06:50:35.868Z,5.78
2022-10-03T06:53:40.894Z,4.28
2022-10-03T06:56:32.316Z,5.38
2022-10-03T06:59:27.093Z,5.00
2022-10-03T07:02:34.959Z,4.30
2022-10-03T07:05:26.306Z,4.35
2022-10-03T07:08:16.396Z,4.40
2022-10-03T07:10:58.837Z,4.00
2022-10-03T07:14:08.460Z,4.45
2022-10-03T07:16:35.784Z,5.10
2022-10-03T07:19:35.120Z,4.63
2022-10-03T07:22:08.761Z,4.47
2022-10-03T07:28:18.985Z,4.20
2022-10-03T07:30:48.988Z,4.18
2022-10-03T07:33:53.428Z,4.82
2022-10-03T07:37:09.041Z,4.63
2022-10-03T07:40:12.015Z,4.57
2022-10-03T07:42:58.815Z,4.60
2022-10-03T07:45:34.905Z,4.22
2022-10-03T07:48:40.426Z,5.07
2022-10-03T07:51:24.196Z,4.60
2022-10-03T07:57:04.693Z,4.50
2022-10-03T08:00:03.341Z,4.65
2022-10-03T08:03:17.798Z,4.47
2022-10-03T08:06:11.556Z,3.95
2022-10-03T08:08:44.904Z,4.20
2022-10-03T08:11:33.563Z,4.43
2022-10-03T08:14:00.914Z,4.38
2022-10-03T08:16:49.474Z,4.25
2022-10-03T08:19:19.514Z,4.78
2022-10-03T08:22:07.219Z,4.30
2022-10-03T08:25:09.403Z,3.83
2022-10-03T08:27:59.954Z,3.20
2022-10-03T08:31:11.461Z,5.68
2022-10-03T08:34:16.154Z,5.07
2022-10-03T08:37:11.641Z,3.95
2022-10-03T08:39:57.090Z,3.75
2022-10-03T08:42:58.273Z,4.18
2022-10-03T08:46:02.264Z,4.57
2022-10-03T08:48:57.527Z,4.00
2022-10-03T08:52:00.299Z,4.55
2022-10-03T08:54:54.070Z,3.67
2022-10-03T08:57:48.123Z,3.72
2022-10-03T09:00:23.698Z,3.22
2022-10-03T09:06:24.992Z,4.22
2022-10-03T09:09:16.517Z,3.40
2022-10-03T09:12:05.425Z,3.95
2022-10-03T09:14:39.026Z,4.72
2022-10-03T09:17:35.383Z,4.28
2022-10-03T09:20:29.694Z,5.15
2022-10-03T09:23:18.055Z,3.78
2022-10-03T09:26:06.901Z,4.15
2022-10-03T09:29:09.542Z,3.65
2022-10-03T09:32:20.042Z,4.45
2022-10-03T09:35:27.952Z,3.55
2022-10-03T09:38:13.306Z,3.90
2022-10-03T09:41:02.494Z,4.00
2022-10-03T09:44:12.099Z,3.75
2022-10-03T09:47:13.482Z,3.78
2022-10-03T09:50:22.947Z,3.30
2022-10-03T09:54:07.781Z,3.08
2022-10-03T09:57:23.172Z,3.25
2022-10-03T10:00:09.082Z,3.40
2022-10-03T10:03:36.095Z,2.97
2022-10-03T10:06:06.430Z,2.72
2022-10-03T10:09:02.250Z,2.38
2022-10-03T10:11:57.397Z,2.75
2022-10-03T10:15:07.412Z,2.40
2022-10-03T10:18:29.146Z,2.75
2022-10-03T10:21:15.948Z,2.50
2022-10-03T10:24:11.275Z,1.90
2022-10-03T10:27:00.964Z,2.17
2022-10-03T10:30:33.652Z,2.88
2022-10-03T10:37:01.391Z,3.05
2022-10-03T10:40:02.333Z,2.33
2022-10-03T10:42:54.873Z,2.75
2022-10-03T10:46:02.164Z,2.60
2022-10-03T10:48:48.792Z,2.70
2022-10-03T10:52:00.466Z,2.05
2022-10-03T10:54:31.579Z,2.75
2022-10-03T10:57:31.083Z,2.58
2022-10-03T11:00:26.952Z,2.60
2022-10-03T11:03:43.288Z,2.83
2022-10-03T11:06:32.481Z,2.92
2022-10-03T11:09:45.379Z,1.73
2022-10-03T11:12:25.210Z,1.73
2022-10-03T11:15:26.881Z,2.05
2022-10-03T11:18:22.787Z,1.58
2022-10-03T11:21:08.925Z,2.47
2022-10-03T11:24:01.566Z,2.00
2022-10-03T11:27:36.572Z,1.98
2022-10-03T11:30:40.727Z,2.10
2022-10-03T11:33:54.608Z,1.92
2022-10-03T11:37:01.395Z,1.90
2022-10-03T11:39:51.058Z,1.70
2022-10-03T11:42:58.298Z,2.10
2022-10-03T11:45:55.318Z,2.13
2022-10-03T11:48:44.826Z,1.95
2022-10-03T11:51:53.414Z,2.20
2022-10-03T11:54:44.245Z,1.80
2022-10-03T11:57:44.289Z,1.90
2022-10-03T12:00:35.401Z,2.40
2022-10-03T12:03:32.159Z,1.70
2022-10-03T12:07:15.892Z,2.28
2022-10-03T12:10:37.624Z,2.60
2022-10-03T12:13:23.433Z,2.30
2022-10-03T12:16:32.455Z,2.13
2022-10-03T12:19:16.034Z,2.30
2022-10-03T12:22:05.842Z,3.03
2022-10-03T12:24:58.014Z,1.95
2022-10-03T12:28:00.329Z,1.80
2022-10-03T12:31:19.129Z,1.55
2022-10-03T12:34:21.542Z,2.20
2022-10-03T12:37:39.752Z,2.30
2022-10-03T12:40:32.239Z,1.90
2022-10-03T12:47:56.593Z,2.65
2022-10-03T12:51:10.945Z,3.00
2022-10-03T12:54:31.031Z,2.25
2022-10-03T12:57:29.565Z,2.53
2022-10-03T13:00:27.075Z,2.47
2022-10-03T13:03:25.635Z,3.53
2022-10-03T13:10:23.617Z,3.10
2022-10-03T13:13:47.072Z,3.13
2022-10-03T13:16:52.259Z,3.13
2022-10-03T13:23:30.498Z,2.80
2022-10-03T13:27:09.196Z,2.20
2022-10-03T13:30:19.596Z,3.75
2022-10-03T13:33:45.665Z,2.70
2022-10-03T13:37:26.621Z,1.88
2022-10-03T13:47:42.642Z,1.45
2022-10-03T13:54:33.253Z,1.60
2022-10-03T13:57:40.915Z,1.17
2022-10-03T14:00:34.198Z,1.23
2022-10-03T14:07:38.980Z,1.27
2022-10-03T14:11:11.980Z,1.17
2022-10-03T14:14:06.020Z,1.30
2022-10-03T14:17:02.161Z,1.10
2022-10-03T14:20:35.556Z,0.88
2022-10-03T14:31:11.078Z,1.58
2022-10-03T14:34:27.801Z,1.30
2022-10-03T14:37:20.480Z,1.30
2022-10-03T14:44:12.640Z,1.52
2022-10-03T14:47:43.150Z,1.05
2022-10-03T14:50:51.320Z,1.45
2022-10-03T14:54:34.174Z,1.50
2022-10-03T14:58:11.757Z,1.30
2022-10-03T15:01:15.123Z,1.40
2022-10-03T15:04:16.063Z,1.17
2022-10-03T15:13:29.159Z,1.13
2022-10-03T15:16:12.332Z,1.20
2022-10-03T15:23:08.238Z,1.00
2022-10-03T15:26:40.149Z,1.08
2022-10-03T15:29:37.275Z,1.90
2022-10-03T15:32:24.386Z,1.15
2022-10-03T15:35:25.782Z,0.75
2022-10-03T15:38:32.408Z,1.38
2022-10-03T15:41:35.489Z,1.17
2022-10-03T15:48:16.560Z,1.10
2022-10-03T15:51:42.117Z,1.08
2022-10-03T15:54:45.652Z,0.90
2022-10-03T15:58:00.417Z,0.95
2022-10-03T16:00:55.828Z,0.60
2022-10-03T16:04:11.410Z,0.95
2022-10-03T16:14:51.153Z,0.90
2022-10-03T16:26:04.474Z,0.90
2022-10-03T16:29:16.052Z,0.68
2022-10-03T16:32:27.967Z,1.52
2022-10-03T16:35:04.027Z,0.85
2022-10-03T16:37:41.270Z,1.00
2022-10-03T16:40:35.970Z,1.17
2022-10-03T16:43:19.504Z,0.65
2022-10-03T16:45:54.526Z,0.90
2022-10-03T16:49:01.608Z,0.82
2022-10-03T16:52:05.159Z,0.93
2022-10-03T16:54:59.241Z,0.65
2022-10-03T16:57:59.439Z,0.80
2022-10-03T17:01:21.949Z,1.00
2022-10-03T17:04:24.038Z,1.05
2022-10-03T17:07:30.871Z,1.02
2022-10-03T17:10:36.326Z,0.90
2022-10-03T17:13:33.236Z,1.13
2022-10-03T17:16:54.302Z,1.23
2022-10-03T17:20:09.455Z,1.00
2022-10-03T17:23:06.366Z,0.82
2022-10-03T17:29:21.857Z,1.48
2022-10-03T17:32:25.245Z,1.17
2022-10-03T17:38:24.594Z,0.90
2022-10-03T17:41:27.399Z,1.05
2022-10-03T17:47:35.321Z,1.05
2022-10-03T17:50:20.912Z,0.95
2022-10-03T17:52:51.935Z,1.05
2022-10-03T17:55:44.036Z,1.33
2022-10-03T17:58:37.711Z,1.15
2022-10-03T18:01:33.313Z,1.00
2022-10-03T18:07:32.429Z,2.08
2022-10-03T18:10:23.203Z,0.98
2022-10-03T18:13:10.820Z,1.33
2022-10-03T18:16:12.723Z,1.02
2022-10-03T18:19:03.571Z,1.02
2022-10-03T18:25:08.440Z,1.35
2022-10-03T18:28:17.914Z,1.25
2022-10-03T18:31:02.901Z,1.00
2022-10-03T18:34:10.366Z,1.27
2022-10-03T18:37:02.075Z,1.50
2022-10-03T18:39:43.947Z,1.33
2022-10-03T18:42:32.014Z,1.48
2022-10-03T18:45:46.104Z,5.03
2022-10-03T18:49:33.869Z,1.67
2022-10-03T18:53:11.657Z,1.20
2022-10-03T18:55:51.416Z,1.25
2022-10-03T18:58:32.736Z,1.10
2022-10-03T19:01:30.927Z,1.42
2022-10-03T19:04:14.212Z,1.30
2022-10-03T19:06:56.157Z,1.55
2022-10-03T19:09:31.897Z,1.40
2022-10-03T19:12:21.898Z,1.55
2022-10-03T19:15:22.444Z,1.52
2022-10-03T19:18:29.017Z,1.27
2022-10-03T19:21:11.325Z,1.55
2022-10-03T19:23:47.779Z,1.67
2022-10-03T19:26:35.713Z,1.90
2022-10-03T19:29:37.656Z,1.65
2022-10-03T19:32:34.542Z,1.60
2022-10-03T19:35:09.576Z,1.55
2022-10-03T19:40:45.591Z,1.60
2022-10-03T19:43:40.557Z,1.60
2022-10-03T19:46:36.841Z,1.90
2022-10-03T19:49:25.008Z,1.35
2022-10-03T19:52:31.815Z,1.90
2022-10-03T19:55:22.568Z,2.22
2022-10-03T19:58:16.250Z,1.80
2022-10-03T20:01:02.497Z,2.42
2022-10-03T20:04:04.119Z,2.25
2022-10-03T20:07:16.056Z,2.20
2022-10-03T20:10:27.015Z,2.08
2022-10-03T20:13:04.681Z,2.83
2022-10-03T20:15:56.364Z,3.15
2022-10-03T20:18:34.840Z,3.45
2022-10-03T20:21:09.715Z,3.88
2022-10-03T20:23:43.403Z,3.20
2022-10-03T20:26:41.560Z,3.60
2022-10-03T20:30:07.779Z,3.10
2022-10-03T20:33:46.791Z,3.17
2022-10-03T20:36:38.798Z,3.20
2022-10-03T20:39:22.938Z,3.17
2022-10-03T20:42:19.044Z,3.25
2022-10-03T20:45:12.892Z,2.78
2022-10-03T20:47:57.080Z,3.30
2022-10-03T20:51:06.211Z,3.33
2022-10-03T20:53:42.555Z,3.05
2022-10-03T20:56:16.144Z,3.05
2022-10-03T20:58:54.667Z,3.28
2022-10-03T21:01:27.800Z,3.63
2022-10-03T21:04:20.608Z,3.65
2022-10-03T21:07:07.822Z,3.30
2022-10-03T21:10:10.146Z,3.20
2022-10-03T21:13:03.424Z,3.53
2022-10-03T21:15:38.449Z,2.75
2022-10-03T21:18:17.035Z,3.70
2022-10-03T21:20:47.647Z,3.78
2022-10-03T21:23:23.340Z,4.03
2022-10-03T21:25:59.502Z,3.63
2022-10-03T21:28:35.973Z,3.58
2022-10-03T21:31:37.559Z,3.25
2022-10-03T21:34:10.352Z,3.92
2022-10-03T21:39:59.088Z,3.50
2022-10-03T21:42:37.538Z,3.88
2022-10-03T21:45:18.596Z,3.55
2022-10-03T21:48:14.408Z,4.20
2022-10-03T21:50:51.046Z,3.53
2022-10-03T21:54:09.429Z,3.20
2022-10-03T21:56:59.809Z,3.53
2022-10-03T21:59:49.489Z,3.40
2022-10-03T22:02:27.154Z,3.30
2022-10-03T22:05:33.302Z,3.10
2022-10-03T22:08:32.102Z,3.92
2022-10-03T22:11:11.973Z,3.58
2022-10-03T22:13:45.684Z,3.40
2022-10-03T22:16:23.932Z,3.20
2022-10-03T22:19:11.975Z,3.75
2022-10-03T22:21:53.127Z,3.55
2022-10-03T22:24:49.332Z,3.50
2022-10-03T22:27:33.455Z,3.85
2022-10-03T22:30:09.597Z,3.13
2022-10-03T22:33:22.532Z,3.63
2022-10-03T22:36:01.330Z,3.40
2022-10-03T22:38:33.366Z,3.97
2022-10-03T22:41:16.486Z,3.80
2022-10-03T22:43:47.342Z,3.77
2022-10-03T22:46:22.619Z,3.88
2022-10-03T22:48:56.848Z,3.92
2022-10-03T22:51:28.358Z,4.22
2022-10-03T22:54:06.373Z,4.30
2022-10-03T22:56:36.835Z,4.25
2022-10-03T22:59:11.997Z,3.83
2022-10-03T23:01:45.913Z,4.35
2022-10-03T23:04:23.541Z,3.47
2022-10-03T23:07:15.744Z,3.75
2022-10-03T23:10:31.436Z,4.43
2022-10-03T23:13:13.682Z,3.95
2022-10-03T23:15:45.747Z,4.25
2022-10-03T23:18:31.617Z,4.15
2022-10-03T23:21:12.154Z,3.90
2022-10-03T23:24:05.966Z,3.88
2022-10-03T23:26:55.220Z,4.05
2022-10-03T23:29:27.797Z,3.70
2022-10-03T23:32:11.822Z,3.70
2022-10-03T23:34:42.805Z,4.47
2022-10-03T23:37:15.959Z,4.07
2022-10-03T23:40:05.321Z,4.50
2022-10-03T23:42:32.762Z,3.42
2022-10-03T23:45:07.167Z,4.30
2022-10-03T23:47:42.940Z,4.60
2022-10-03T23:53:10.363Z,4.15
2022-10-03T23:55:42.534Z,4.78
2022-10-03T23:58:25.697Z,4.22
